createdAt,value
2022-11-12T00:01:18.211Z,11.05
2022-11-12T00:03:39.601Z,8.95
2022-11-12T00:06:01.265Z,9.30
2022-11-12T00:08:23.249Z,8.77
2022-11-12T00:10:45.545Z,8.90
2022-11-12T00:13:06.837Z,10.18
2022-11-12T00:15:29.680Z,8.85
2022-11-12T00:17:51.034Z,8.15
2022-11-12T00:20:12.993Z,9.20
2022-11-12T00:22:34.733Z,8.93
2022-11-12T00:24:56.199Z,9.57
2022-11-12T00:27:17.761Z,8.63
2022-11-12T00:29:39.315Z,9.40
2022-11-12T00:32:02.139Z,9.30
2022-11-12T00:34:23.622Z,9.98
2022-11-12T00:36:45.265Z,9.40
2022-11-12T00:39:07.009Z,9.02
2022-11-12T00:41:28.525Z,10.23
2022-11-12T00:43:49.842Z,10.60
2022-11-12T00:46:12.946Z,12.10
2022-11-12T00:48:35.941Z,9.43
2022-11-12T00:51:01.743Z,9.82
2022-11-12T00:53:23.185Z,11.73
2022-11-12T00:55:44.292Z,11.38
2022-11-12T00:58:05.371Z,10.00
2022-11-12T01:00:27.255Z,12.05
2022-11-12T01:02:51.304Z,9.70
2022-11-12T01:05:14.357Z,9.90
2022-11-12T01:07:35.998Z,8.60
2022-11-12T01:09:57.471Z,8.70
2022-11-12T01:12:19.153Z,9.23
2022-11-12T01:14:40.900Z,7.18
2022-11-12T01:17:02.578Z,8.15
2022-11-12T01:19:23.692Z,7.25
2022-11-12T01:21:46.496Z,8.35
2022-11-12T01:24:08.498Z,7.20
2022-11-12T01:26:29.845Z,7.53
2022-11-12T01:28:51.553Z,6.43
2022-11-12T01:31:15.644Z,6.72
2022-11-12T01:33:36.917Z,6.00
2022-11-12T01:36:00.172Z,6.10
2022-11-12T01:38:23.127Z,5.82
2022-11-12T01:40:44.795Z,4.88
2022-11-12T01:43:13.001Z,4.85
2022-11-12T01:45:34.419Z,6.18
2022-11-12T01:47:56.701Z,6.68
2022-11-12T01:50:24.931Z,8.32
2022-11-12T01:52:48.930Z,4.85
2022-11-12T01:55:15.699Z,4.72
2022-11-12T01:57:42.277Z,3.88
2022-11-12T02:00:08.089Z,4.43
2022-11-12T02:02:29.635Z,4.88
2022-11-12T02:04:52.322Z,7.70
2022-11-12T02:07:13.859Z,14.05
2022-11-12T02:09:36.489Z,5.28
2022-11-12T02:12:00.442Z,5.00
2022-11-12T02:14:21.520Z,5.32
2022-11-12T02:16:45.265Z,5.47
2022-11-12T02:19:08.393Z,6.47
2022-11-12T02:21:31.649Z,7.93
2022-11-12T02:24:05.559Z,8.93
2022-11-12T02:26:27.957Z,5.55
2022-11-12T02:28:49.492Z,4.90
2022-11-12T02:31:10.793Z,4.93
2022-11-12T02:33:31.995Z,4.70
2022-11-12T02:35:53.171Z,4.70
2022-11-12T02:38:15.960Z,4.68
2022-11-12T02:40:37.830Z,4.50
2022-11-12T02:42:59.129Z,6.28
2022-11-12T02:45:21.067Z,13.23
2022-11-12T02:47:42.706Z,10.93
2022-11-12T02:50:04.313Z,13.02
2022-11-12T02:52:25.787Z,10.02
2022-11-12T02:54:48.229Z,16.83
2022-11-12T02:57:09.581Z,14.63
2022-11-12T02:59:31.046Z,11.68
2022-11-12T03:01:52.622Z,4.97
2022-11-12T03:04:13.980Z,4.70
2022-11-12T03:06:35.484Z,4.22
2022-11-12T03:08:56.719Z,4.45
2022-11-12T03:11:19.707Z,6.90
2022-11-12T03:13:42.248Z,7.55
2022-11-12T03:16:03.835Z,8.18
2022-11-12T03:18:25.393Z,7.47
2022-11-12T03:20:46.892Z,5.57
2022-11-12T03:23:10.144Z,6.85
2022-11-12T03:25:31.707Z,8.60
2022-11-12T03:28:02.191Z,7.95
2022-11-12T03:30:23.373Z,8.63
2022-11-12T03:32:44.716Z,7.38
2022-11-12T03:35:06.935Z,6.15
2022-11-12T03:37:28.088Z,5.65
2022-11-12T03:39:49.250Z,4.35
2022-11-12T03:42:10.745Z,5.70
2022-11-12T03:44:33.909Z,5.50
2022-11-12T03:46:55.688Z,5.28
2022-11-12T03:49:17.321Z,5.00
2022-11-12T03:51:38.600Z,5.22
2022-11-12T03:53:59.942Z,4.85
2022-11-12T03:56:21.237Z,5.95
2022-11-12T03:58:42.635Z,6.95
2022-11-12T04:01:05.347Z,7.70
2022-11-12T04:03:26.734Z,6.78
2022-11-12T04:06:05.479Z,4.90
2022-11-12T04:08:39.294Z,4.82
2022-11-12T04:11:01.315Z,4.78
2022-11-12T04:13:28.837Z,5.18
2022-11-12T04:16:10.114Z,5.38
2022-11-12T04:18:50.352Z,4.55
2022-11-12T04:21:33.343Z,4.10
2022-11-12T04:23:54.644Z,5.10
2022-11-12T04:26:23.782Z,6.15
2022-11-12T04:29:05.148Z,6.10
2022-11-12T04:31:25.690Z,4.72
2022-11-12T04:33:48.655Z,4.72
2022-11-12T04:36:10.378Z,5.72
2022-11-12T04:38:32.052Z,4.55
2022-11-12T04:41:10.619Z,4.60
2022-11-12T04:43:49.372Z,4.80
2022-11-12T04:46:10.840Z,4.45
2022-11-12T04:48:33.525Z,4.30
2022-11-12T04:50:59.793Z,3.90
2022-11-12T04:53:21.306Z,3.72
2022-11-12T04:55:42.938Z,4.28
2022-11-12T04:58:04.207Z,3.88
2022-11-12T05:00:26.259Z,3.85
2022-11-12T05:02:50.158Z,4.78
2022-11-12T05:05:11.583Z,4.88
2022-11-12T05:07:34.742Z,4.45
2022-11-12T05:09:55.978Z,5.00
2022-11-12T05:12:17.030Z,4.40
2022-11-12T05:14:38.404Z,4.18
2022-11-12T05:17:00.042Z,6.18
2022-11-12T05:19:21.347Z,4.57
2022-11-12T05:21:56.477Z,9.05
2022-11-12T05:24:40.546Z,14.00
2022-11-12T05:27:00.442Z,6.40
2022-11-12T05:29:21.695Z,7.35
2022-11-12T05:31:42.986Z,5.57
2022-11-12T05:34:04.218Z,5.72
2022-11-12T05:36:25.265Z,5.60
2022-11-12T05:38:46.458Z,5.30
2022-11-12T05:41:09.006Z,6.05
2022-11-12T05:43:30.483Z,7.03
2022-11-12T05:45:51.592Z,3.78
2022-11-12T05:48:12.754Z,5.07
2022-11-12T05:50:45.395Z,4.22
2022-11-12T05:53:15.099Z,5.60
2022-11-12T05:55:37.234Z,7.10
2022-11-12T05:57:59.808Z,5.95
2022-11-12T06:00:21.305Z,3.65
2022-11-12T06:02:43.221Z,3.30
2022-11-12T06:05:05.123Z,3.60
2022-11-12T06:07:26.507Z,5.10
2022-11-12T06:09:47.712Z,4.80
2022-11-12T06:12:08.979Z,5.05
2022-11-12T06:14:31.506Z,5.43
2022-11-12T06:16:52.603Z,4.82
2022-11-12T06:19:13.779Z,5.47
2022-11-12T06:21:34.981Z,5.18
2022-11-12T06:23:58.115Z,4.45
2022-11-12T06:26:20.022Z,4.65
2022-11-12T06:28:41.656Z,7.00
2022-11-12T06:31:04.657Z,11.98
2022-11-12T06:33:26.008Z,12.07
2022-11-12T06:35:47.128Z,14.50
2022-11-12T06:38:08.367Z,23.15
2022-11-12T06:40:29.432Z,18.02
2022-11-12T06:42:57.697Z,11.95
2022-11-12T06:45:19.405Z,10.40
2022-11-12T06:47:41.847Z,9.23
2022-11-12T06:50:03.443Z,6.13
2022-11-12T06:52:24.951Z,5.80
2022-11-12T06:54:46.260Z,4.65
2022-11-12T06:57:07.629Z,4.78
2022-11-12T06:59:28.734Z,4.43
2022-11-12T07:01:50.082Z,4.15
2022-11-12T07:04:12.427Z,4.78
2022-11-12T07:06:35.209Z,4.90
2022-11-12T07:08:56.778Z,4.90
2022-11-12T07:11:19.164Z,5.35
2022-11-12T07:13:40.746Z,5.10
2022-11-12T07:16:02.740Z,6.10
2022-11-12T07:18:24.605Z,5.65
2022-11-12T07:20:47.846Z,5.72
2022-11-12T07:23:09.174Z,5.07
2022-11-12T07:25:30.464Z,5.40
2022-11-12T07:27:52.140Z,5.25
2022-11-12T07:30:14.447Z,5.88
2022-11-12T07:32:41.934Z,5.40
2022-11-12T07:35:06.043Z,5.97
2022-11-12T07:37:28.601Z,5.10
2022-11-12T07:39:50.639Z,5.68
2022-11-12T07:42:11.974Z,4.80
2022-11-12T07:44:33.144Z,7.35
2022-11-12T07:46:54.349Z,6.50
2022-11-12T07:49:15.491Z,5.30
2022-11-12T07:51:36.490Z,5.38
2022-11-12T07:54:00.546Z,4.93
2022-11-12T07:56:23.724Z,5.78
2022-11-12T07:58:45.470Z,6.50
2022-11-12T08:01:10.783Z,5.65
2022-11-12T08:03:32.141Z,5.43
2022-11-12T08:05:53.767Z,5.88
2022-11-12T08:08:15.353Z,5.90
2022-11-12T08:10:38.006Z,6.07
2022-11-12T08:12:59.063Z,4.18
2022-11-12T08:15:20.069Z,4.38
2022-11-12T08:17:41.274Z,5.88
2022-11-12T08:20:02.372Z,4.82
2022-11-12T08:22:23.882Z,4.30
2022-11-12T08:24:45.509Z,4.55
2022-11-12T08:27:08.142Z,6.15
2022-11-12T08:29:29.477Z,3.50
2022-11-12T08:31:50.699Z,3.65
2022-11-12T08:34:18.698Z,3.80
2022-11-12T08:36:42.897Z,5.20
2022-11-12T08:39:04.377Z,3.53
2022-11-12T08:41:25.981Z,3.17
2022-11-12T08:43:48.826Z,4.22
2022-11-12T08:46:10.497Z,3.40
2022-11-12T08:48:34.043Z,3.05
2022-11-12T08:50:55.852Z,3.85
2022-11-12T08:53:16.857Z,5.55
2022-11-12T08:55:38.340Z,6.05
2022-11-12T08:58:02.126Z,5.05
2022-11-12T09:00:25.104Z,4.05
2022-11-12T09:02:46.533Z,3.90
2022-11-12T09:05:08.401Z,5.18
2022-11-12T09:07:48.721Z,4.20
2022-11-12T09:10:11.504Z,4.20
2022-11-12T09:12:33.091Z,4.45
2022-11-12T09:14:59.543Z,4.38
2022-11-12T09:17:32.575Z,3.85
2022-11-12T09:19:54.266Z,6.40
2022-11-12T09:22:15.546Z,7.43
2022-11-12T09:24:37.010Z,4.95
2022-11-12T09:26:58.427Z,4.93
2022-11-12T09:29:19.653Z,4.00
2022-11-12T09:31:40.862Z,3.50
2022-11-12T09:34:03.451Z,3.72
2022-11-12T09:36:24.964Z,3.90
2022-11-12T09:38:46.540Z,3.75
2022-11-12T09:41:29.321Z,3.10
2022-11-12T09:43:53.267Z,3.53
2022-11-12T09:46:28.381Z,3.67
2022-11-12T09:48:54.377Z,3.90
2022-11-12T09:51:24.587Z,4.00
2022-11-12T09:53:53.456Z,3.55
2022-11-12T09:56:17.568Z,3.47
2022-11-12T09:58:39.122Z,3.10
2022-11-12T10:01:04.364Z,3.35
2022-11-12T10:03:36.447Z,3.38
2022-11-12T10:06:05.997Z,3.38
2022-11-12T10:08:43.540Z,2.92
2022-11-12T10:11:21.581Z,3.20
2022-11-12T10:13:55.895Z,3.20
2022-11-12T10:16:42.825Z,3.60
2022-11-12T10:19:18.056Z,3.67
2022-11-12T10:21:47.636Z,3.20
2022-11-12T10:24:12.451Z,3.30
2022-11-12T10:26:34.143Z,3.80
2022-11-12T10:29:04.185Z,3.47
2022-11-12T10:31:25.452Z,3.13
2022-11-12T10:33:46.679Z,3.20
2022-11-12T10:36:25.279Z,3.10
2022-11-12T10:38:50.713Z,3.20
2022-11-12T10:41:23.382Z,2.73
2022-11-12T10:43:55.166Z,4.50
2022-11-12T10:46:20.820Z,3.10
2022-11-12T10:48:53.778Z,3.80
2022-11-12T10:51:26.879Z,4.77
2022-11-12T10:53:48.545Z,4.83
2022-11-12T10:56:29.374Z,4.30
2022-11-12T10:59:10.839Z,5.23
2022-11-12T11:01:35.757Z,2.90
2022-11-12T11:03:59.062Z,2.80
2022-11-12T11:06:24.518Z,2.93
2022-11-12T11:08:48.316Z,3.40
2022-11-12T11:11:21.528Z,3.23
2022-11-12T11:13:44.589Z,3.73
2022-11-12T11:16:08.551Z,3.77
2022-11-12T11:18:31.484Z,6.07
2022-11-12T11:21:02.768Z,3.60
2022-11-12T11:23:29.144Z,2.67
2022-11-12T11:25:53.869Z,3.67
2022-11-12T11:28:24.175Z,3.50
2022-11-12T11:30:56.362Z,3.23
2022-11-12T11:33:33.657Z,3.33
2022-11-12T11:36:07.808Z,3.50
2022-11-12T11:38:44.981Z,3.40
2022-11-12T11:41:18.732Z,3.70
2022-11-12T11:43:52.117Z,4.50
2022-11-12T11:46:25.004Z,4.13
2022-11-12T11:49:05.946Z,5.57
2022-11-12T11:51:40.607Z,3.87
2022-11-12T11:54:14.899Z,4.00
2022-11-12T11:56:41.526Z,4.00
2022-11-12T11:59:16.704Z,4.87
2022-11-12T12:01:54.289Z,4.10
2022-11-12T12:04:37.948Z,7.50
2022-11-12T12:07:12.319Z,5.53
2022-11-12T12:09:39.224Z,4.57
2022-11-12T12:12:10.645Z,4.10
2022-11-12T12:14:46.213Z,4.80
2022-11-12T12:17:27.837Z,4.33
2022-11-12T12:20:06.044Z,4.60
2022-11-12T12:22:37.236Z,8.43
2022-11-12T12:25:03.399Z,5.80
2022-11-12T12:27:31.949Z,4.60
2022-11-12T12:29:57.069Z,4.43
2022-11-12T12:32:26.555Z,4.70
2022-11-12T12:34:55.125Z,4.83
2022-11-12T12:37:26.056Z,5.10
2022-11-12T12:39:54.414Z,4.53
2022-11-12T12:42:21.658Z,4.10
2022-11-12T12:45:03.335Z,4.03
2022-11-12T12:47:27.120Z,4.47
2022-11-12T12:49:51.402Z,4.57
2022-11-12T12:52:14.281Z,4.30
2022-11-12T12:54:58.499Z,4.50
2022-11-12T12:57:34.437Z,3.90
2022-11-12T13:00:26.426Z,4.30
2022-11-12T13:02:49.052Z,3.90
2022-11-12T13:05:25.661Z,4.77
2022-11-12T13:07:50.410Z,4.10
2022-11-12T13:10:55.929Z,4.27
2022-11-12T13:13:37.314Z,5.57
2022-11-12T13:15:59.950Z,4.47
2022-11-12T13:18:54.617Z,5.20
2022-11-12T13:21:18.847Z,4.27
2022-11-12T13:24:06.379Z,4.73
2022-11-12T13:26:58.746Z,4.33
2022-11-12T13:29:40.619Z,9.43
2022-11-12T13:32:41.804Z,5.50
2022-11-12T13:35:27.430Z,6.27
2022-11-12T13:37:53.847Z,4.93
2022-11-12T13:40:18.448Z,6.83
2022-11-12T13:42:51.471Z,4.80
2022-11-12T13:45:13.466Z,4.43
2022-11-12T13:47:34.588Z,4.67
2022-11-12T13:49:56.959Z,4.47
2022-11-12T13:52:20.567Z,4.70
2022-11-12T13:54:43.514Z,4.30
2022-11-12T13:57:27.226Z,4.67
2022-11-12T13:59:48.872Z,4.37
2022-11-12T14:02:21.970Z,4.37
2022-11-12T14:04:43.349Z,4.37
2022-11-12T14:07:16.654Z,7.60
2022-11-12T14:10:01.988Z,6.30
2022-11-12T14:12:51.146Z,5.73
2022-11-12T14:15:24.736Z,4.83
2022-11-12T14:17:55.573Z,4.87
2022-11-12T14:20:26.356Z,4.20
2022-11-12T14:22:48.136Z,4.57
2022-11-12T14:25:18.891Z,4.30
2022-11-12T14:27:39.999Z,4.60
2022-11-12T14:30:22.795Z,4.63
2022-11-12T14:32:46.007Z,4.47
2022-11-12T14:35:29.112Z,4.70
2022-11-12T14:37:55.701Z,4.50
2022-11-12T14:40:20.027Z,5.25
2022-11-12T14:42:41.617Z,4.80
2022-11-12T14:45:03.251Z,5.23
2022-11-12T14:47:25.003Z,5.50
2022-11-12T14:49:48.996Z,4.72
2022-11-12T14:52:14.712Z,4.60
2022-11-12T14:54:41.818Z,4.80
2022-11-12T14:57:05.844Z,5.10
2022-11-12T14:59:27.481Z,4.85
2022-11-12T15:02:29.627Z,5.80
2022-11-12T15:04:55.801Z,8.23
2022-11-12T15:07:28.575Z,10.93
2022-11-12T15:09:49.680Z,7.75
2022-11-12T15:12:20.423Z,7.82
2022-11-12T15:14:41.787Z,8.10
2022-11-12T15:17:05.519Z,10.40
2022-11-12T15:19:28.205Z,7.75
2022-11-12T15:21:52.052Z,8.50
2022-11-12T15:24:20.073Z,8.07
2022-11-12T15:26:44.389Z,7.22
2022-11-12T15:29:21.965Z,7.90
2022-11-12T15:31:48.684Z,6.15
2022-11-12T15:34:27.530Z,7.72
2022-11-12T15:36:49.211Z,7.15
2022-11-12T15:39:14.958Z,7.20
2022-11-12T15:41:36.304Z,7.05
2022-11-12T15:43:58.150Z,7.22
2022-11-12T15:46:20.972Z,9.00
2022-11-12T15:48:42.115Z,7.78
2022-11-12T15:51:03.321Z,8.13
2022-11-12T15:53:24.723Z,6.53
2022-11-12T15:55:48.105Z,10.45
2022-11-12T15:58:16.055Z,39.25
2022-11-12T16:00:39.770Z,17.13
2022-11-12T16:03:13.635Z,13.23
2022-11-12T16:05:35.059Z,14.50
2022-11-12T16:07:56.352Z,21.83
2022-11-12T16:10:19.686Z,21.20
2022-11-12T16:12:41.390Z,15.57
2022-11-12T16:15:03.092Z,12.95
2022-11-12T16:17:24.514Z,11.77
2022-11-12T16:19:47.430Z,14.13
2022-11-12T16:22:12.632Z,16.73
2022-11-12T16:24:33.805Z,20.83
2022-11-12T16:26:55.187Z,18.35
2022-11-12T16:29:16.872Z,13.35
2022-11-12T16:31:38.251Z,18.08
2022-11-12T16:33:59.291Z,13.43
2022-11-12T16:36:21.928Z,14.65
2022-11-12T16:38:43.748Z,15.23
2022-11-12T16:41:05.094Z,9.82
2022-11-12T16:43:26.550Z,8.80
2022-11-12T16:45:47.985Z,7.53
2022-11-12T16:48:13.595Z,10.82
2022-11-12T16:50:35.137Z,8.57
2022-11-12T16:52:57.641Z,11.48
2022-11-12T16:55:18.873Z,13.48
2022-11-12T16:57:40.200Z,12.32
2022-11-12T17:00:01.701Z,12.43
2022-11-12T17:02:22.904Z,12.50
2022-11-12T17:04:44.166Z,12.65
2022-11-12T17:07:07.043Z,11.70
2022-11-12T17:09:29.708Z,10.55
2022-11-12T17:11:51.023Z,16.63
2022-11-12T17:14:12.324Z,17.65
2022-11-12T17:16:33.629Z,22.15
2022-11-12T17:18:55.424Z,18.70
2022-11-12T17:21:18.945Z,13.57
2022-11-12T17:23:40.124Z,12.65
2022-11-12T17:26:03.639Z,13.65
2022-11-12T17:28:24.972Z,12.60
2022-11-12T17:30:46.172Z,25.40
2022-11-12T17:33:07.346Z,21.58
2022-11-12T17:35:28.485Z,19.67
2022-11-12T17:37:51.184Z,15.27
2022-11-12T17:40:12.618Z,33.60
2022-11-12T17:42:35.626Z,20.73
2022-11-12T17:44:57.182Z,26.10
2022-11-12T17:47:18.502Z,22.42
2022-11-12T17:49:39.861Z,19.00
2022-11-12T17:52:01.132Z,16.10
2022-11-12T17:54:22.658Z,19.75
2022-11-12T17:56:44.051Z,20.70
2022-11-12T17:59:06.738Z,15.85
2022-11-12T18:01:29.741Z,13.25
2022-11-12T18:03:53.218Z,14.50
2022-11-12T18:06:16.467Z,13.57
2022-11-12T18:08:37.917Z,12.90
2022-11-12T18:10:59.274Z,12.48
2022-11-12T18:13:21.000Z,10.85
2022-11-12T18:15:43.470Z,11.95
2022-11-12T18:18:05.449Z,12.10
2022-11-12T18:20:27.657Z,11.10
2022-11-12T18:22:49.138Z,12.93
2022-11-12T18:25:10.867Z,13.48
2022-11-12T18:27:32.057Z,14.07
2022-11-12T18:29:53.169Z,11.98
2022-11-12T18:32:16.372Z,13.30
2022-11-12T18:34:41.744Z,12.10
2022-11-12T18:37:03.265Z,12.07
2022-11-12T18:39:26.353Z,12.52
2022-11-12T18:41:47.390Z,12.02
2022-11-12T18:44:08.501Z,12.57
2022-11-12T18:46:29.769Z,12.65
2022-11-12T18:48:52.258Z,12.80
2022-11-12T18:51:15.718Z,13.55
2022-11-12T18:53:39.116Z,16.27
2022-11-12T18:56:02.854Z,17.15
2022-11-12T18:58:24.153Z,18.67
2022-11-12T19:00:45.547Z,17.77
2022-11-12T19:03:06.834Z,17.58
2022-11-12T19:05:29.430Z,17.17
2022-11-12T19:07:50.761Z,16.38
2022-11-12T19:10:15.075Z,16.80
2022-11-12T19:12:36.903Z,15.60
2022-11-12T19:14:58.413Z,14.10
2022-11-12T19:17:19.687Z,14.48
2022-11-12T19:19:41.049Z,13.23
2022-11-12T19:22:03.745Z,12.85
2022-11-12T19:24:25.121Z,14.23
2022-11-12T19:26:46.318Z,15.73
2022-11-12T19:29:07.487Z,15.20
2022-11-12T19:31:29.114Z,16.02
2022-11-12T19:33:51.315Z,13.32
2022-11-12T19:36:15.008Z,13.60
2022-11-12T19:38:37.569Z,13.32
2022-11-12T19:41:04.781Z,13.48
2022-11-12T19:43:26.072Z,13.30
2022-11-12T19:45:47.302Z,13.50
2022-11-12T19:48:08.668Z,13.10
2022-11-12T19:50:33.235Z,13.35
2022-11-12T19:52:54.988Z,12.38
2022-11-12T19:55:17.940Z,14.02
2022-11-12T19:57:39.119Z,13.73
2022-11-12T20:00:00.241Z,14.75
2022-11-12T20:02:21.410Z,16.17
2022-11-12T20:04:42.781Z,17.77
2022-11-12T20:07:04.177Z,17.80
2022-11-12T20:09:25.755Z,19.52
2022-11-12T20:11:48.335Z,18.35
2022-11-12T20:14:09.708Z,18.40
2022-11-12T20:16:30.909Z,17.65
2022-11-12T20:18:54.241Z,19.83
2022-11-12T20:21:15.547Z,20.45
2022-11-12T20:23:37.540Z,20.15
2022-11-12T20:26:03.508Z,18.40
2022-11-12T20:28:26.148Z,19.20
2022-11-12T20:30:47.643Z,18.77
2022-11-12T20:33:09.377Z,19.48
2022-11-12T20:35:30.996Z,18.50
2022-11-12T20:37:53.198Z,17.13
2022-11-12T20:40:14.669Z,17.55
2022-11-12T20:42:36.140Z,18.63
2022-11-12T20:44:58.623Z,17.63
2022-11-12T20:47:20.081Z,16.85
2022-11-12T20:49:41.527Z,15.90
2022-11-12T20:52:02.726Z,15.00
2022-11-12T20:54:24.133Z,16.08
2022-11-12T20:56:45.357Z,17.23
2022-11-12T20:59:06.878Z,16.63
2022-11-12T21:01:31.083Z,18.02
2022-11-12T21:03:53.073Z,19.55
2022-11-12T21:06:16.750Z,23.05
2022-11-12T21:08:39.446Z,23.67
2022-11-12T21:11:02.507Z,23.65
2022-11-12T21:13:24.103Z,26.25
2022-11-12T21:15:46.190Z,28.63
2022-11-12T21:18:09.026Z,21.05
2022-11-12T21:20:30.278Z,18.60
2022-11-12T21:22:51.668Z,16.35
2022-11-12T21:25:13.050Z,16.65
2022-11-12T21:27:34.718Z,16.35
2022-11-12T21:29:56.094Z,14.13
2022-11-12T21:32:17.386Z,13.98
2022-11-12T21:34:40.002Z,14.15
2022-11-12T21:37:01.998Z,14.77
2022-11-12T21:39:23.425Z,12.45
2022-11-12T21:41:44.737Z,11.98
2022-11-12T21:44:06.149Z,10.02
2022-11-12T21:46:29.167Z,9.90
2022-11-12T21:48:54.805Z,10.95
2022-11-12T21:51:19.823Z,12.75
2022-11-12T21:53:43.150Z,13.52
2022-11-12T21:56:05.055Z,12.77
2022-11-12T21:58:26.807Z,13.32
2022-11-12T22:00:48.032Z,12.88
2022-11-12T22:03:09.327Z,13.13
2022-11-12T22:05:30.482Z,13.32
2022-11-12T22:07:52.927Z,12.32
2022-11-12T22:10:14.215Z,12.55
2022-11-12T22:12:35.580Z,15.27
2022-11-12T22:14:56.849Z,15.30
2022-11-12T22:17:18.139Z,16.27
2022-11-12T22:19:40.016Z,16.80
2022-11-12T22:22:01.364Z,17.10
2022-11-12T22:24:24.050Z,18.20
2022-11-12T22:26:45.264Z,18.67
2022-11-12T22:29:06.623Z,16.70
2022-11-12T22:31:29.594Z,17.13
2022-11-12T22:33:51.705Z,17.65
2022-11-12T22:36:15.079Z,16.45
2022-11-12T22:38:37.714Z,16.23
2022-11-12T22:41:03.775Z,19.75
2022-11-12T22:43:25.744Z,19.77
2022-11-12T22:45:46.926Z,25.05
2022-11-12T22:48:08.098Z,26.42
2022-11-12T22:50:29.253Z,26.27
2022-11-12T22:52:50.475Z,21.70
2022-11-12T22:55:11.659Z,20.95
2022-11-12T22:57:34.386Z,18.48
2022-11-12T22:59:55.726Z,19.55
2022-11-12T23:02:16.833Z,18.67
2022-11-12T23:04:38.103Z,20.17
2022-11-12T23:06:59.399Z,18.42
2022-11-12T23:09:20.544Z,18.98
2022-11-12T23:11:41.679Z,15.82
2022-11-12T23:14:04.464Z,15.23
2022-11-12T23:16:29.474Z,12.52
2022-11-12T23:18:52.136Z,14.20
2022-11-12T23:21:15.371Z,15.82
2022-11-12T23:23:36.997Z,13.13
2022-11-12T23:26:03.099Z,11.82
2022-11-12T23:28:24.608Z,11.15
2022-11-12T23:30:51.246Z,10.38
2022-11-12T23:33:12.526Z,8.90
2022-11-12T23:35:33.650Z,10.30
2022-11-12T23:37:54.860Z,12.82
2022-11-12T23:40:17.220Z,13.25
2022-11-12T23:42:38.637Z,15.88
2022-11-12T23:44:59.719Z,15.50
2022-11-12T23:47:22.307Z,16.13
2022-11-12T23:49:43.553Z,17.48
2022-11-12T23:52:05.019Z,17.55
2022-11-12T23:54:26.459Z,18.60
2022-11-12T23:56:47.611Z,16.85
2022-11-12T23:59:09.029Z,15.68
